KJVL

Southern Wisconsin Regional Airport

Janesville, Wisconsin, USA
METAR KJVL 141245Z 00000KT 7SM SKC 21/21 A3001
Observed Flight Rules
Aug-14 @ 12:45 UTC (56 minutes ago) Visual Flight Rules
Visibility Clouds
7 miles
  • Clear skies
Temperatures Readings
Current 21°C / 70°F
Dewpoint 21°C / 70°F
Humidity 100%
Altimeter 30.01" Hg
Pressure 1016 hPa
Elevation 246
METAR KJVL 141245Z 00000KT 7SM SKC 21/21 A3001
Observed Flight Rules
Aug-14 @ 12:45 UTC
(56 minutes ago)
VFR
Clouds
  • Clear skies
Temperature Dewpoint
21°C / 70°F 21°C / 70°F
Humidity Altimeter Pressure
100% 30.01" Hg 1016 hPa